Easton, PA (18045)

11:38 AM EST on December 05, 2016 (GMT -0500)
Palmer Township | | Change Station

Elev 436 ft 40.67 °N, 75.27 °W | Updated 14 seconds ago

Rain
Rain
38.0 °F
Feels Like 38 °F
N
3.0
Wind Variable Wind from West

Today
High -- | Low -- °F
--% Chance of Precip.
Yesterday
High -- | Low -- °F
Precip. -- in
Pressure 30.00 in
Visibility 0.8 miles
Clouds Overcast 500 ft
Windchill 38 °F
Dew Point 35 °F
Humidity 90%
Rainfall 0.14 in
Snow Depth Not available.
7:10 AM 4:33 PM
Waxing Crescent, 33% visible
SPECI KABE 051630Z 28008KT 3/4SM BR OVC005 04/02 A3000 RMK AO2 SFC VIS 6 T00440022
Pressure 30.00 in
Visibility 0.8 miles
Clouds Overcast 500 ft
Windchill 38 °F
Dew Point 35 °F
Humidity 90%
Rainfall 0.14 in
Snow Depth Not available.
7:10 AM 4:33 PM
Waxing Crescent, 33% visible
SPECI KABE 051630Z 28008KT 3/4SM BR OVC005 04/02 A3000 RMK AO2 SFC VIS 6 T00440022

10-Day Weather Forecast

Almanac

Astronomy

Dec. 05, 2016 Rise Set
Actual Time
Civil Twilight
Nautical Twilight
Astronomical Twilight
Moon
Length of Visible Light
Length of Day
Tomorrow will be .
, % of the Moon is Illuminated

Today's Extremes

State Highs State Lows

Community

WunderPhotos

Upload Photos

1,955,819 photos uploaded!

WunderBlog® & News

Nearby

Air Quality

  Air Quality AQ Index Pollutant
Not available.

Snow Depth

Station Depth Elevation

Earthquake Activity

City Distance Mag. Time & Date
Minimum magnitude displayed is 2.5.

Coastal Water Temperatures

Place Temperature

Stations

Nearby Weather Stations

Station Location Temp. Windchill Dew Point Humidity Wind Precip. Elev Updated Type
                   

Watches & Warnings

There are currently no watches in effect.